Time;durP1;ratioP1;P1;durP2;ratioP2;P2;SDS_P1;SDS_P2;PMS_P1;PMS_P2;Temp;Humidity;BMP_temperature;BMP_pressure;BME280_temperature;BME280_humidity;BME280_pressure;Samples;Min_cycle;Max_cycle;Signal;HPM_P1;HPM_P2
2023/04/06 00:01:31;;;;;;;11.60;4.60;;;5.70;91.80;;;;;;4974076;28;20093;-55
2023/04/06 00:03:57;;;;;;;9.40;4.90;;;5.70;91.90;;;;;;4974766;28;20038;-53
2023/04/06 00:06:22;;;;;;;9.68;4.82;;;5.70;91.90;;;;;;4973536;28;20027;-55
2023/04/06 00:08:48;;;;;;;7.20;4.60;;;5.60;92.00;;;;;;4960808;28;20073;-53
2023/04/06 00:11:14;;;;;;;8.60;4.50;;;5.60;92.00;;;;;;4982934;28;20126;-53
2023/04/06 00:13:40;;;;;;;9.95;4.82;;;5.50;92.10;;;;;;4973011;28;20548;-51
2023/04/06 00:16:06;;;;;;;10.10;4.90;;;5.50;92.10;;;;;;4973565;28;20042;-53
2023/04/06 00:18:32;;;;;;;8.85;5.07;;;5.40;92.20;;;;;;4955132;28;20116;-53
2023/04/06 00:20:57;;;;;;;7.93;4.40;;;5.40;92.30;;;;;;4980665;28;20134;-51
2023/04/06 00:23:23;;;;;;;11.55;5.07;;;5.40;92.40;;;;;;4978446;28;20538;-54
2023/04/06 00:25:49;;;;;;;9.00;4.90;;;5.40;92.40;;;;;;4981176;28;20111;-55
2023/04/06 00:28:15;;;;;;;7.95;4.70;;;5.30;92.50;;;;;;4979244;28;20498;-52
2023/04/06 00:30:41;;;;;;;10.80;4.90;;;5.30;92.50;;;;;;4979883;28;20521;-56
2023/04/06 00:33:07;;;;;;;8.73;5.10;;;5.30;92.60;;;;;;4978040;28;20347;-51
2023/04/06 00:35:32;;;;;;;8.90;4.50;;;5.30;92.60;;;;;;4980378;28;20089;-53
2023/04/06 00:37:58;;;;;;;8.38;4.93;;;5.20;92.70;;;;;;4973985;28;20046;-53
2023/04/06 00:40:24;;;;;;;9.00;5.50;;;5.20;92.70;;;;;;4980620;28;20035;-52
2023/04/06 00:42:50;;;;;;;8.05;4.85;;;5.10;92.80;;;;;;4974225;28;20055;-50
2023/04/06 00:45:16;;;;;;;9.55;4.90;;;5.10;93.10;;;;;;4974049;28;20389;-55
2023/04/06 00:47:42;;;;;;;12.18;4.95;;;5.10;92.90;;;;;;4973702;28;20039;-54
2023/04/06 00:50:08;;;;;;;11.23;5.40;;;5.00;93.00;;;;;;4980446;28;20077;-53
2023/04/06 00:52:34;;;;;;;9.50;5.03;;;5.00;93.10;;;;;;4973911;28;20093;-54
2023/04/06 00:55:00;;;;;;;9.00;4.95;;;5.00;93.20;;;;;;4979247;28;20133;-51
2023/04/06 00:57:26;;;;;;;8.68;4.97;;;4.90;93.20;;;;;;4975081;28;20127;-52
2023/04/06 00:59:52;;;;;;;11.15;5.50;;;4.90;93.30;;;;;;4972025;28;20157;-53
2023/04/06 01:02:18;;;;;;;8.95;5.18;;;4.90;93.40;;;;;;4973077;28;20418;-50
2023/04/06 01:04:44;;;;;;;9.85;5.28;;;4.80;93.40;;;;;;4980651;28;20053;-52
2023/04/06 01:07:10;;;;;;;11.07;5.03;;;4.80;93.50;;;;;;4974411;28;20058;-53
2023/04/06 01:09:36;;;;;;;11.77;6.03;;;4.70;93.60;;;;;;4972541;28;20113;-52
2023/04/06 01:12:03;;;;;;;10.13;5.35;;;4.70;93.60;;;;;;4974045;28;20042;-52
2023/04/06 01:14:29;;;;;;;10.93;5.68;;;4.70;93.70;;;;;;4973358;28;20039;-52
2023/04/06 01:16:57;;;;;;;10.40;5.28;;;4.60;93.70;;;;;;4974622;28;20035;-53
2023/04/06 01:19:23;;;;;;;9.73;5.25;;;4.60;93.70;;;;;;4971740;28;20506;-51
2023/04/06 01:21:50;;;;;;;9.07;4.70;;;4.60;93.80;;;;;;4973807;28;20085;-54
2023/04/06 01:24:16;;;;;;;8.18;5.30;;;4.60;93.90;;;;;;4978837;28;20541;-49
2023/04/06 01:26:42;;;;;;;11.70;5.15;;;4.50;93.90;;;;;;4974201;28;20065;-52
2023/04/06 01:29:08;;;;;;;12.15;5.93;;;4.50;94.00;;;;;;4984287;28;20040;-53
2023/04/06 01:31:34;;;;;;;9.68;5.80;;;4.50;94.10;;;;;;4974336;28;20038;-51
2023/04/06 01:34:00;;;;;;;10.73;5.50;;;4.40;94.10;;;;;;4973690;28;20069;-53
2023/04/06 01:36:26;;;;;;;8.55;4.97;;;4.40;94.20;;;;;;4971572;28;20053;-49
2023/04/06 01:38:52;;;;;;;8.90;5.57;;;4.40;94.30;;;;;;4979923;28;20470;-52
2023/04/06 01:41:17;;;;;;;8.20;5.13;;;4.30;94.40;;;;;;4972888;28;20129;-53
2023/04/06 01:43:44;;;;;;;11.57;5.50;;;4.30;94.40;;;;;;4972315;28;20505;-51
2023/04/06 01:46:10;;;;;;;10.55;5.63;;;4.30;94.50;;;;;;4973052;28;20053;-53
2023/04/06 01:48:36;;;;;;;10.30;5.22;;;4.20;94.60;;;;;;4982269;28;20042;-55
2023/04/06 01:51:02;;;;;;;9.70;5.50;;;4.20;94.90;;;;;;4977791;28;20046;-54
2023/04/06 01:53:27;;;;;;;11.50;6.30;;;4.20;94.90;;;;;;4981268;28;20030;-53
2023/04/06 01:55:53;;;;;;;11.45;5.57;;;4.10;94.90;;;;;;4973084;28;20027;-54
2023/04/06 01:58:19;;;;;;;10.13;5.25;;;4.10;95.10;;;;;;4973202;28;20098;-50
2023/04/06 02:00:44;;;;;;;10.40;5.90;;;4.10;95.10;;;;;;4972073;28;20031;-55
2023/04/06 02:03:10;;;;;;;12.65;5.90;;;4.10;95.20;;;;;;4974807;28;20038;-49
2023/04/06 02:05:37;;;;;;;8.77;5.95;;;4.00;95.30;;;;;;4981111;28;20474;-50
2023/04/06 02:08:05;;;;;;;9.32;5.32;;;4.00;95.40;;;;;;4973067;28;20461;-53
2023/04/06 02:10:31;;;;;;;9.38;5.47;;;4.00;95.40;;;;;;4972104;28;20138;-54
2023/04/06 02:12:57;;;;;;;10.07;6.03;;;4.00;95.50;;;;;;4975030;28;20038;-50
2023/04/06 02:15:23;;;;;;;12.40;5.90;;;3.90;95.60;;;;;;4979951;28;20188;-52
2023/04/06 02:17:49;;;;;;;10.25;5.60;;;3.90;95.70;;;;;;4954678;28;20047;-52
2023/04/06 02:20:14;;;;;;;11.18;6.13;;;3.80;95.70;;;;;;4972037;28;20090;-54
2023/04/06 02:22:40;;;;;;;12.30;6.53;;;3.80;95.80;;;;;;4971835;28;20139;-52
2023/04/06 02:25:06;;;;;;;10.07;5.90;;;3.80;95.90;;;;;;4972454;28;20039;-52
2023/04/06 02:27:32;;;;;;;10.45;5.68;;;3.70;96.00;;;;;;4989487;28;20544;-56
2023/04/06 02:29:58;;;;;;;14.07;6.22;;;3.70;96.10;;;;;;4990815;28;20031;-55
2023/04/06 02:32:24;;;;;;;11.43;6.07;;;3.70;96.20;;;;;;4979051;28;20042;-52
2023/04/06 02:34:49;;;;;;;11.05;5.97;;;3.60;96.20;;;;;;4955532;28;20540;-53
2023/04/06 02:37:15;;;;;;;12.23;6.03;;;3.60;96.30;;;;;;4979683;28;20039;-53
2023/04/06 02:39:41;;;;;;;13.32;7.35;;;3.60;96.40;;;;;;4973697;28;20047;-53
2023/04/06 02:42:08;;;;;;;11.82;6.70;;;3.50;96.50;;;;;;4962211;28;20386;-53
2023/04/06 02:44:34;;;;;;;12.18;6.72;;;3.50;96.50;;;;;;4973219;28;20129;-54
2023/04/06 02:47:00;;;;;;;14.75;6.40;;;3.50;96.70;;;;;;4971658;28;20166;-54
2023/04/06 02:49:25;;;;;;;10.23;6.22;;;3.50;96.70;;;;;;4973041;28;20102;-51
2023/04/06 02:51:51;;;;;;;10.45;6.80;;;3.40;96.80;;;;;;4972068;28;20042;-53
2023/04/06 02:54:17;;;;;;;11.45;6.82;;;3.40;96.80;;;;;;4971521;28;20050;-49
2023/04/06 02:56:43;;;;;;;12.07;6.00;;;3.40;97.00;;;;;;4958869;28;20048;-53
2023/04/06 02:59:09;;;;;;;16.00;6.72;;;3.40;97.10;;;;;;4980712;28;21189;-53
2023/04/06 03:01:35;;;;;;;13.18;6.13;;;3.50;97.20;;;;;;4975138;28;20101;-52
2023/04/06 03:04:01;;;;;;;11.18;6.63;;;3.40;97.20;;;;;;4971400;28;20046;-54
2023/04/06 03:06:27;;;;;;;11.65;7.40;;;3.20;97.30;;;;;;4990038;28;20042;-55
2023/04/06 03:08:53;;;;;;;11.75;6.70;;;3.20;97.40;;;;;;4964217;28;20505;-53
2023/04/06 03:11:19;;;;;;;11.88;6.57;;;3.20;97.50;;;;;;4971583;28;20030;-55
2023/04/06 03:13:44;;;;;;;12.68;6.28;;;3.30;97.60;;;;;;4970888;28;20043;-52
2023/04/06 03:16:10;;;;;;;13.57;6.65;;;3.10;97.70;;;;;;4976202;28;20050;-54
2023/04/06 03:18:36;;;;;;;14.30;6.55;;;3.10;97.80;;;;;;4986357;28;20061;-50
2023/04/06 03:21:02;;;;;;;13.98;6.60;;;3.10;97.90;;;;;;4977730;28;20045;-54
2023/04/06 03:23:27;;;;;;;11.85;6.60;;;3.00;97.90;;;;;;4971549;28;20035;-53
2023/04/06 03:25:53;;;;;;;12.70;7.05;;;3.00;98.00;;;;;;4975752;28;20046;-54
2023/04/06 03:28:19;;;;;;;10.77;6.70;;;3.00;98.10;;;;;;4974780;28;20070;-54
2023/04/06 03:30:45;;;;;;;14.00;6.75;;;3.20;98.20;;;;;;4993708;28;20031;-53
2023/04/06 03:33:11;;;;;;;12.57;6.88;;;2.90;98.20;;;;;;4986322;28;20041;-55
2023/04/06 03:35:37;;;;;;;12.00;6.75;;;2.80;98.30;;;;;;4975359;28;20043;-52
2023/04/06 03:38:04;;;;;;;12.05;6.15;;;2.80;98.40;;;;;;4975292;28;20330;-50
2023/04/06 03:40:31;;;;;;;12.68;6.45;;;2.80;98.60;;;;;;4974807;28;20050;-51
2023/04/06 03:42:57;;;;;;;14.25;6.70;;;2.80;98.60;;;;;;4992255;28;20786;-50
2023/04/06 03:45:22;;;;;;;14.30;6.53;;;2.80;98.70;;;;;;4993283;28;20042;-54
2023/04/06 03:47:48;;;;;;;12.45;6.68;;;2.70;98.80;;;;;;4981715;28;20391;-52
2023/04/06 03:50:14;;;;;;;14.48;6.90;;;2.70;98.90;;;;;;4975486;28;20097;-54
2023/04/06 03:52:40;;;;;;;10.80;6.47;;;2.70;99.00;;;;;;4980964;28;20493;-52
2023/04/06 03:55:06;;;;;;;11.80;6.97;;;2.60;99.10;;;;;;4976000;28;20291;-53
2023/04/06 03:57:32;;;;;;;14.90;7.05;;;2.60;99.20;;;;;;4981243;28;20053;-53
2023/04/06 03:59:58;;;;;;;11.75;6.63;;;2.60;99.30;;;;;;4975107;28;20047;-49
2023/04/06 04:02:23;;;;;;;12.45;6.93;;;2.60;99.50;;;;;;4956187;28;20097;-50
2023/04/06 04:04:49;;;;;;;13.80;7.32;;;2.60;99.50;;;;;;4957983;28;20155;-54
2023/04/06 04:07:15;;;;;;;12.70;7.32;;;2.60;99.60;;;;;;4974739;28;20070;-55
2023/04/06 04:09:40;;;;;;;13.82;7.43;;;2.50;99.70;;;;;;4974961;28;20482;-54
2023/04/06 04:12:06;;;;;;;13.00;6.90;;;2.50;99.80;;;;;;4973976;28;20101;-51
2023/04/06 04:14:32;;;;;;;11.55;7.00;;;2.50;99.90;;;;;;4974919;28;20045;-52
2023/04/06 04:16:58;;;;;;;12.77;7.15;;;2.50;99.90;;;;;;4981564;28;20100;-53
2023/04/06 04:19:23;;;;;;;11.90;7.20;;;2.50;99.90;;;;;;4980760;28;20137;-54
2023/04/06 04:21:49;;;;;;;12.48;7.05;;;2.40;99.90;;;;;;4982707;28;20561;-50
2023/04/06 04:24:15;;;;;;;13.10;7.53;;;2.40;99.90;;;;;;4977062;28;20039;-53
2023/04/06 04:26:41;;;;;;;13.00;7.03;;;2.40;99.90;;;;;;4974078;28;20479;-53
2023/04/06 04:29:07;;;;;;;12.20;6.78;;;2.40;99.90;;;;;;4973825;28;20122;-54
2023/04/06 04:31:32;;;;;;;14.75;7.55;;;2.40;99.90;;;;;;4973784;28;20053;-52
2023/04/06 04:33:59;;;;;;;13.85;7.57;;;2.40;99.90;;;;;;4975300;28;20049;-53
2023/04/06 04:36:26;;;;;;;12.88;7.78;;;2.40;99.90;;;;;;4980175;28;20051;-52
2023/04/06 04:38:54;;;;;;;14.07;7.45;;;2.40;99.90;;;;;;4975263;28;20043;-51
2023/04/06 04:41:20;;;;;;;16.20;7.65;;;2.40;99.90;;;;;;4972628;28;20114;-51
2023/04/06 04:43:46;;;;;;;13.15;6.93;;;2.30;99.90;;;;;;4973991;28;20122;-51
2023/04/06 04:46:11;;;;;;;13.48;7.47;;;2.30;99.90;;;;;;4973368;28;20038;-52
2023/04/06 04:48:37;;;;;;;15.70;8.00;;;2.30;99.90;;;;;;4974642;28;20587;-54
2023/04/06 04:51:04;;;;;;;13.57;7.07;;;2.30;99.90;;;;;;4980812;28;20042;-48
2023/04/06 04:53:30;;;;;;;14.73;8.00;;;2.30;99.90;;;;;;4974531;28;20478;-52
2023/04/06 04:55:56;;;;;;;15.93;7.70;;;2.20;99.90;;;;;;4961786;28;20047;-51
2023/04/06 04:58:22;;;;;;;13.80;8.00;;;2.20;99.90;;;;;;4973529;28;20487;-51
2023/04/06 05:00:47;;;;;;;16.83;7.80;;;2.20;99.90;;;;;;4974013;28;20043;-52
2023/04/06 05:03:21;;;;;;;14.93;8.13;;;2.30;99.90;;;;;;4973907;28;20039;-54
2023/04/06 05:05:47;;;;;;;15.20;7.43;;;2.20;99.90;;;;;;4973632;28;20031;-50
2023/04/06 05:08:13;;;;;;;13.73;6.93;;;2.20;99.90;;;;;;4985094;28;20077;-50
2023/04/06 05:10:38;;;;;;;12.65;7.13;;;2.20;99.90;;;;;;4979063;28;20410;-54
2023/04/06 05:13:04;;;;;;;13.77;7.40;;;2.20;99.90;;;;;;4984986;28;20035;-54
2023/04/06 05:15:30;;;;;;;14.27;7.30;;;2.20;99.90;;;;;;4978739;28;20553;-53
2023/04/06 05:17:56;;;;;;;12.35;7.15;;;2.40;99.90;;;;;;4974215;28;20078;-54
2023/04/06 05:20:22;;;;;;;14.32;7.55;;;2.70;99.90;;;;;;4978046;28;20050;-52
2023/04/06 05:22:47;;;;;;;14.98;7.78;;;2.30;99.90;;;;;;4973124;28;20486;-54
2023/04/06 05:25:14;;;;;;;13.30;7.75;;;2.20;99.90;;;;;;4972716;28;20391;-55
2023/04/06 05:27:40;;;;;;;12.88;7.55;;;2.20;99.90;;;;;;4984352;28;20105;-53
2023/04/06 05:30:07;;;;;;;11.50;6.97;;;2.30;99.90;;;;;;4976550;28;20043;-52
2023/04/06 05:32:34;;;;;;;16.92;7.72;;;2.20;99.90;;;;;;4973796;28;20097;-54
2023/04/06 05:35:00;;;;;;;12.02;7.82;;;2.30;99.90;;;;;;4972184;28;20031;-52
2023/04/06 05:37:25;;;;;;;14.32;7.78;;;2.30;99.90;;;;;;4973123;28;20283;-52
2023/04/06 05:39:51;;;;;;;14.43;8.27;;;2.30;99.90;;;;;;4973047;28;20550;-54
2023/04/06 05:42:17;;;;;;;15.18;7.70;;;2.40;99.90;;;;;;4984716;28;20042;-53
2023/04/06 05:44:43;;;;;;;13.43;7.38;;;2.30;99.90;;;;;;4978905;28;20114;-52
2023/04/06 05:47:08;;;;;;;12.65;7.70;;;2.50;99.90;;;;;;4965759;28;20046;-51
2023/04/06 05:49:34;;;;;;;16.95;8.35;;;2.30;99.90;;;;;;4954515;28;20477;-51
2023/04/06 05:52:01;;;;;;;11.73;7.60;;;2.30;99.90;;;;;;4973201;28;20117;-54
2023/04/06 05:54:26;;;;;;;16.63;7.88;;;2.40;99.90;;;;;;4973082;28;20043;-52
2023/04/06 05:56:52;;;;;;;13.80;7.75;;;2.40;99.90;;;;;;4973068;28;20494;-52
2023/04/06 05:59:18;;;;;;;16.80;7.72;;;2.50;99.90;;;;;;4978564;28;20501;-54
2023/04/06 06:01:44;;;;;;;17.20;8.48;;;2.50;99.90;;;;;;4983892;28;20105;-50
2023/04/06 06:04:09;;;;;;;14.13;7.68;;;2.50;99.90;;;;;;4978165;28;20486;-52
2023/04/06 06:06:36;;;;;;;15.93;8.80;;;2.60;99.90;;;;;;4989817;28;20038;-52
2023/04/06 06:09:03;;;;;;;13.73;7.82;;;2.80;99.90;;;;;;4991552;28;20081;-52
2023/04/06 06:11:29;;;;;;;13.82;8.00;;;2.70;99.90;;;;;;4986544;28;20110;-54
2023/04/06 06:13:55;;;;;;;15.68;8.75;;;2.80;99.90;;;;;;4971847;28;20038;-53
2023/04/06 06:16:21;;;;;;;15.55;8.88;;;2.80;99.90;;;;;;4973171;28;20035;-52
2023/04/06 06:18:47;;;;;;;16.20;8.30;;;2.90;99.90;;;;;;4982672;28;20046;-55
2023/04/06 06:21:13;;;;;;;15.23;8.18;;;3.00;99.90;;;;;;4972105;28;20039;-53
2023/04/06 06:23:39;;;;;;;14.75;8.20;;;3.00;99.90;;;;;;4990766;28;20030;-52
2023/04/06 06:26:04;;;;;;;15.88;8.15;;;3.10;99.90;;;;;;4973381;28;20058;-51
2023/04/06 06:28:31;;;;;;;14.95;7.78;;;3.20;99.90;;;;;;4980671;28;20477;-52
2023/04/06 06:30:56;;;;;;;17.95;8.57;;;3.20;99.90;;;;;;4972965;28;20125;-54
2023/04/06 06:33:22;;;;;;;16.20;8.40;;;3.30;99.90;;;;;;4979407;28;20522;-55
2023/04/06 06:35:48;;;;;;;18.23;9.30;;;3.40;99.90;;;;;;4974675;28;20046;-51
2023/04/06 06:38:14;;;;;;;17.77;8.25;;;3.50;99.90;;;;;;4971567;28;20042;-49
2023/04/06 06:40:40;;;;;;;14.35;8.20;;;3.60;99.90;;;;;;4973176;28;20090;-54
2023/04/06 06:43:06;;;;;;;16.38;8.30;;;3.70;99.90;;;;;;4970842;28;20050;-54
2023/04/06 06:45:32;;;;;;;13.75;8.30;;;3.70;99.90;;;;;;4972984;28;20073;-54
2023/04/06 06:47:58;;;;;;;16.42;8.77;;;3.80;99.90;;;;;;4979619;28;20031;-49
2023/04/06 06:50:24;;;;;;;15.93;8.93;;;3.90;99.90;;;;;;4972402;28;20098;-52
2023/04/06 06:52:50;;;;;;;17.75;9.10;;;3.90;99.90;;;;;;4978942;28;20050;-49
2023/04/06 06:55:16;;;;;;;14.93;8.90;;;4.10;99.90;;;;;;4972690;28;20061;-52
2023/04/06 06:57:46;;;;;;;17.13;9.10;;;4.10;99.90;;;;;;4971776;28;20486;-52
2023/04/06 07:00:13;;;;;;;15.27;8.68;;;4.20;99.90;;;;;;4959183;28;20060;-50
2023/04/06 07:02:38;;;;;;;17.48;8.73;;;4.30;99.90;;;;;;4981527;28;20051;-50
2023/04/06 07:05:05;;;;;;;16.73;8.73;;;4.40;99.90;;;;;;4977062;28;20562;-54
2023/04/06 07:07:33;;;;;;;17.38;9.35;;;4.50;99.90;;;;;;4975392;28;20113;-53
2023/04/06 07:09:59;;;;;;;19.75;8.93;;;4.60;99.90;;;;;;4976585;28;20047;-55
2023/04/06 07:12:25;;;;;;;17.75;9.85;;;4.70;99.90;;;;;;4982898;28;20097;-54
2023/04/06 07:14:50;;;;;;;17.90;9.45;;;4.80;99.90;;;;;;4977253;28;20043;-52
2023/04/06 07:17:16;;;;;;;16.30;8.85;;;5.00;99.90;;;;;;4981806;28;20383;-51
2023/04/06 07:19:42;;;;;;;20.85;9.07;;;5.20;99.90;;;;;;4983354;28;20109;-54
2023/04/06 07:22:08;;;;;;;17.48;9.43;;;5.30;99.90;;;;;;4983386;28;20065;-55
2023/04/06 07:24:34;;;;;;;21.85;9.18;;;5.50;99.90;;;;;;4967660;28;20043;-52
2023/04/06 07:27:00;;;;;;;16.00;9.27;;;5.50;99.90;;;;;;4974660;28;20045;-52
2023/04/06 07:29:27;;;;;;;16.92;9.18;;;5.60;99.90;;;;;;4974658;28;20520;-54
2023/04/06 07:31:53;;;;;;;15.55;9.40;;;5.60;99.90;;;;;;4978123;28;20126;-52
2023/04/06 07:34:19;;;;;;;19.10;9.32;;;5.70;99.90;;;;;;4979784;28;20089;-54
2023/04/06 07:36:44;;;;;;;15.30;9.77;;;5.70;99.90;;;;;;4975488;28;20073;-53
2023/04/06 07:39:10;;;;;;;16.85;9.73;;;5.80;99.90;;;;;;4976817;28;20094;-49
2023/04/06 07:41:36;;;;;;;17.73;10.07;;;5.80;99.90;;;;;;4978930;28;20528;-50
2023/04/06 07:44:03;;;;;;;15.82;9.63;;;5.80;99.90;;;;;;4979697;28;20099;-54
2023/04/06 07:46:28;;;;;;;18.67;9.88;;;5.90;99.90;;;;;;4975489;28;20170;-55
2023/04/06 07:48:54;;;;;;;16.08;9.52;;;5.90;99.90;;;;;;4944056;28;20121;-53
2023/04/06 07:51:20;;;;;;;16.63;9.88;;;6.00;99.90;;;;;;4977632;28;20035;-54
2023/04/06 07:53:46;;;;;;;16.35;9.90;;;6.00;99.90;;;;;;4980484;28;20496;-53
2023/04/06 07:56:15;;;;;;;20.17;11.13;;;6.10;99.90;;;;;;4977062;28;20070;-52
2023/04/06 07:58:41;;;;;;;18.98;10.20;;;6.20;99.90;;;;;;4959963;28;20058;-51
2023/04/06 08:01:07;;;;;;;17.73;10.55;;;6.30;99.90;;;;;;4975665;28;20034;-52
2023/04/06 08:03:36;;;;;;;19.05;10.35;;;6.50;99.90;;;;;;4980809;28;20494;-52
2023/04/06 08:06:02;;;;;;;18.75;10.25;;;6.60;99.90;;;;;;4980513;28;20039;-52
2023/04/06 08:08:28;;;;;;;19.98;10.88;;;6.80;99.90;;;;;;4975939;28;20089;-55
2023/04/06 08:10:54;;;;;;;25.38;10.43;;;7.00;99.90;;;;;;4978620;28;20037;-50
2023/04/06 08:13:20;;;;;;;15.88;9.75;;;7.10;99.90;;;;;;4977258;28;20038;-55
2023/04/06 08:15:46;;;;;;;18.55;10.45;;;7.30;99.90;;;;;;4977794;28;20168;-54
2023/04/06 08:18:12;;;;;;;18.52;10.02;;;7.40;99.90;;;;;;4978602;28;20045;-52
2023/04/06 08:20:39;;;;;;;19.63;10.10;;;7.40;99.90;;;;;;4977733;28;20062;-54
2023/04/06 08:23:06;;;;;;;17.50;11.07;;;7.50;99.90;;;;;;4978838;28;20038;-54
2023/04/06 08:25:37;;;;;;;20.40;10.57;;;7.60;99.90;;;;;;4975973;28;20038;-52
2023/04/06 08:28:04;;;;;;;19.83;10.82;;;7.70;99.90;;;;;;4982114;28;20500;-54
2023/04/06 08:30:29;;;;;;;22.73;11.38;;;7.90;99.90;;;;;;4974744;28;20038;-53
2023/04/06 08:32:55;;;;;;;17.75;10.20;;;8.00;99.90;;;;;;4980364;28;20393;-53
2023/04/06 08:35:21;;;;;;;17.55;10.48;;;8.10;99.90;;;;;;4973380;28;20509;-54
2023/04/06 08:37:46;;;;;;;18.67;10.98;;;8.20;99.90;;;;;;4977909;28;20039;-53
2023/04/06 08:40:13;;;;;;;23.05;11.48;;;8.30;99.90;;;;;;4979415;28;20050;-51
2023/04/06 08:42:48;;;;;;;17.77;10.60;;;8.40;99.80;;;;;;4976726;28;20050;-52
2023/04/06 08:45:15;;;;;;;17.60;11.02;;;8.60;99.60;;;;;;4970163;28;20592;-55
2023/04/06 08:47:42;;;;;;;18.92;11.48;;;8.70;99.70;;;;;;4978543;28;20137;-52
2023/04/06 08:50:08;;;;;;;18.85;11.43;;;8.90;99.60;;;;;;4978921;28;20109;-49
2023/04/06 08:52:34;;;;;;;21.73;11.85;;;8.90;99.10;;;;;;4975311;28;20057;-53
2023/04/06 08:55:00;;;;;;;20.35;12.10;;;9.00;99.40;;;;;;4979533;28;20038;-52
2023/04/06 08:57:27;;;;;;;22.08;12.75;;;9.10;99.50;;;;;;4975964;28;20085;-53
2023/04/06 08:59:53;;;;;;;18.90;11.85;;;9.20;99.20;;;;;;4976895;28;20134;-51
2023/04/06 09:02:21;;;;;;;20.35;12.10;;;9.30;99.20;;;;;;4977553;28;20137;-54
2023/04/06 09:04:49;;;;;;;22.17;13.30;;;9.30;99.40;;;;;;4976093;28;20113;-54
2023/04/06 09:07:16;;;;;;;20.33;13.25;;;9.40;99.30;;;;;;4978417;28;20035;-53
2023/04/06 09:09:47;;;;;;;20.42;12.75;;;9.50;98.90;;;;;;4976266;28;20035;-52
2023/04/06 09:12:26;;;;;;;24.63;14.43;;;9.50;99.00;;;;;;4974385;28;20042;-55
2023/04/06 09:14:53;;;;;;;23.00;14.18;;;9.70;98.90;;;;;;4976461;28;20121;-55
2023/04/06 09:17:23;;;;;;;23.83;13.82;;;9.80;98.90;;;;;;4974885;28;20080;-54
2023/04/06 09:19:49;;;;;;;27.27;14.70;;;9.80;98.60;;;;;;4975677;28;20498;-52
2023/04/06 09:22:15;;;;;;;23.95;14.43;;;9.80;98.60;;;;;;4975014;28;20046;-53
2023/04/06 09:24:52;;;;;;;23.35;14.05;;;9.80;98.50;;;;;;4978060;28;20530;-52
2023/04/06 09:27:29;;;;;;;21.85;14.52;;;9.80;98.60;;;;;;4975515;28;20043;-55
2023/04/06 09:30:04;;;;;;;22.02;14.35;;;9.80;98.40;;;;;;4973332;28;20046;-55
2023/04/06 09:32:30;;;;;;;27.48;15.02;;;9.80;98.50;;;;;;4978204;28;20344;-54
2023/04/06 09:35:08;;;;;;;26.00;15.50;;;9.80;98.80;;;;;;4970890;28;20121;-55
2023/04/06 09:37:35;;;;;;;27.45;16.23;;;9.90;98.30;;;;;;4978069;28;20049;-56
2023/04/06 09:40:05;;;;;;;25.83;15.98;;;10.70;98.30;;;;;;4974144;28;20078;-56
2023/04/06 09:42:31;;;;;;;26.13;15.63;;;9.90;98.40;;;;;;4971661;28;20164;-53
2023/04/06 09:44:57;;;;;;;24.92;14.95;;;10.00;98.20;;;;;;4981820;28;20038;-51
2023/04/06 09:47:25;;;;;;;27.48;16.75;;;10.00;98.40;;;;;;4976058;28;20051;-52
2023/04/06 09:49:57;;;;;;;24.70;15.70;;;10.10;98.50;;;;;;4971658;28;20045;-54
2023/04/06 09:52:26;;;;;;;25.90;15.60;;;10.10;98.20;;;;;;4975045;28;20055;-52
2023/04/06 09:54:55;;;;;;;24.63;16.00;;;10.10;97.90;;;;;;4973693;28;20471;-52
2023/04/06 09:57:48;;;;;;;26.67;16.30;;;10.20;97.90;;;;;;4972241;28;20041;-54
2023/04/06 10:00:18;;;;;;;27.02;15.45;;;10.20;97.50;;;;;;4989741;28;20129;-49
2023/04/06 10:03:19;;;;;;;24.88;14.90;;;10.20;97.60;;;;;;4982594;28;20094;-50
2023/04/06 10:06:10;;;;;;;26.30;15.93;;;10.30;97.50;;;;;;4967833;28;20053;-51
2023/04/06 10:08:41;;;;;;;27.08;16.80;;;10.40;97.50;;;;;;4974392;28;20090;-52
2023/04/06 10:11:08;;;;;;;27.38;16.33;;;10.50;97.60;;;;;;4955478;28;20471;-55
2023/04/06 10:13:34;;;;;;;28.40;15.90;;;10.70;97.60;;;;;;4973295;28;20039;-50
2023/04/06 10:16:03;;;;;;;30.83;16.75;;;10.80;97.60;;;;;;4978873;28;20041;-53
2023/04/06 10:18:29;;;;;;;26.70;16.58;;;10.90;97.40;;;;;;4974067;28;20148;-52
2023/04/06 10:21:01;;;;;;;25.25;15.43;;;11.00;97.60;;;;;;4979249;28;20046;-53
2023/04/06 10:23:41;;;;;;;25.30;16.35;;;11.20;97.50;;;;;;4973276;28;20042;-55
2023/04/06 10:26:16;;;;;;;28.13;16.95;;;11.30;97.70;;;;;;4976520;28;20046;-55
2023/04/06 10:28:44;;;;;;;24.95;16.60;;;11.40;96.80;;;;;;4979887;28;20093;-53
2023/04/06 10:31:10;;;;;;;26.85;15.93;;;11.50;97.10;;;;;;4972973;28;20031;-54
2023/04/06 10:33:35;;;;;;;25.55;15.55;;;11.60;97.00;;;;;;4982844;28;20049;-52
2023/04/06 10:36:15;;;;;;;25.67;15.45;;;11.70;96.80;;;;;;4981198;28;20125;-52
2023/04/06 10:38:42;;;;;;;23.92;15.18;;;11.70;96.60;;;;;;4977214;28;20043;-51
2023/04/06 10:41:11;;;;;;;28.02;16.00;;;11.80;96.70;;;;;;4976457;28;20047;-54
2023/04/06 10:43:41;;;;;;;27.77;18.73;;;11.80;96.30;;;;;;4978447;28;20045;-52
2023/04/06 10:46:08;;;;;;;25.83;14.73;;;11.90;96.00;;;;;;4976718;28;20044;-53
2023/04/06 10:48:49;;;;;;;26.33;15.35;;;11.90;95.80;;;;;;4980608;28;20072;-54
2023/04/06 10:51:17;;;;;;;26.50;18.20;;;11.80;95.30;;;;;;4983534;28;20049;-53
2023/04/06 10:53:45;;;;;;;22.98;17.30;;;11.80;95.30;;;;;;4978045;28;20046;-54
2023/04/06 10:56:13;;;;;;;22.95;15.20;;;11.80;95.40;;;;;;4982872;28;20046;-53
2023/04/06 10:58:46;;;;;;;24.75;15.35;;;11.90;95.70;;;;;;4963026;28;20042;-52
2023/04/06 11:01:13;;;;;;;23.88;15.45;;;12.00;95.70;;;;;;4983015;28;20052;-55
2023/04/06 11:03:54;;;;;;;24.38;16.83;;;12.10;95.80;;;;;;4962291;28;20042;-52
2023/04/06 11:06:27;;;;;;;25.88;16.23;;;12.20;95.40;;;;;;4982275;28;20043;-51
2023/04/06 11:08:54;;;;;;;21.02;15.77;;;12.30;95.80;;;;;;4979893;28;20496;-53
2023/04/06 11:11:22;;;;;;;22.45;16.50;;;12.30;95.20;;;;;;4981979;28;20035;-53
2023/04/06 11:13:56;;;;;;;24.15;16.52;;;12.40;94.80;;;;;;4982342;28;20042;-52
2023/04/06 11:16:26;;;;;;;23.17;15.38;;;12.40;94.80;;;;;;4982780;28;20042;-54
2023/04/06 11:19:03;;;;;;;24.50;16.73;;;12.40;95.20;;;;;;4979605;28;20050;-54
2023/04/06 11:21:38;;;;;;;23.85;15.52;;;12.40;94.50;;;;;;4983058;28;20057;-54
2023/04/06 11:24:12;;;;;;;22.88;17.65;;;12.30;94.70;;;;;;4979342;28;20088;-53
2023/04/06 11:26:45;;;;;;;24.52;14.88;;;12.20;94.60;;;;;;4982077;28;20038;-53
2023/04/06 11:29:23;;;;;;;21.15;16.30;;;12.20;94.80;;;;;;4984793;28;20038;-54
2023/04/06 11:32:08;;;;;;;24.45;17.10;;;12.20;94.80;;;;;;4982375;28;20157;-53
2023/04/06 11:34:39;;;;;;;23.27;17.63;;;12.20;94.90;;;;;;4981406;28;20108;-54
2023/04/06 11:37:09;;;;;;;23.52;14.60;;;12.20;95.20;;;;;;4981675;28;20057;-52
2023/04/06 11:39:42;;;;;;;22.27;15.57;;;12.20;95.50;;;;;;4978884;28;20045;-53
2023/04/06 11:42:09;;;;;;;22.60;14.82;;;12.20;95.30;;;;;;4981255;28;20043;-50
2023/04/06 11:44:45;;;;;;;26.70;16.83;;;12.20;95.40;;;;;;4976153;28;20120;-50
2023/04/06 11:47:12;;;;;;;25.58;17.80;;;12.10;95.30;;;;;;4977184;28;20077;-52
2023/04/06 11:49:39;;;;;;;24.02;15.07;;;12.10;95.60;;;;;;4965438;28;20390;-53
2023/04/06 11:52:18;;;;;;;24.92;14.75;;;12.10;95.70;;;;;;4959921;28;20050;-52
2023/04/06 11:54:45;;;;;;;26.30;16.63;;;12.00;95.60;;;;;;4981573;28;20045;-53
2023/04/06 11:57:11;;;;;;;26.67;15.98;;;12.00;95.70;;;;;;4974033;28;20046;-51
2023/04/06 11:59:36;;;;;;;25.70;17.05;;;12.00;95.90;;;;;;4973076;28;20391;-49
2023/04/06 12:02:03;;;;;;;25.15;15.75;;;12.00;96.20;;;;;;4973889;28;20043;-53
2023/04/06 12:04:29;;;;;;;24.88;16.45;;;12.00;96.20;;;;;;4972959;28;20101;-50
2023/04/06 12:06:55;;;;;;;24.13;14.57;;;12.00;96.10;;;;;;4974283;28;20114;-52
2023/04/06 12:09:21;;;;;;;23.15;17.00;;;12.00;96.20;;;;;;4981941;28;20039;-54
2023/04/06 12:11:47;;;;;;;25.70;15.57;;;12.00;96.50;;;;;;4976465;28;20035;-52
2023/04/06 12:14:12;;;;;;;26.70;16.08;;;12.10;96.40;;;;;;4975051;28;20433;-51
2023/04/06 12:16:39;;;;;;;23.50;17.73;;;12.10;96.40;;;;;;4974445;28;20494;-49
2023/04/06 12:19:05;;;;;;;26.00;17.67;;;12.10;96.50;;;;;;4979127;28;20054;-53
2023/04/06 12:21:32;;;;;;;23.83;15.70;;;12.10;96.30;;;;;;4976358;28;20482;-51
2023/04/06 12:23:58;;;;;;;24.70;15.00;;;12.30;96.50;;;;;;4981673;28;20383;-51
2023/04/06 12:26:24;;;;;;;20.40;14.55;;;12.10;96.50;;;;;;4974414;28;20124;-49
2023/04/06 12:28:50;;;;;;;21.05;12.73;;;12.00;96.30;;;;;;4973641;28;20121;-50
2023/04/06 12:31:17;;;;;;;16.98;10.60;;;12.00;96.20;;;;;;4975085;28;20121;-54
2023/04/06 12:33:46;;;;;;;17.70;9.80;;;11.90;96.60;;;;;;4974186;28;20037;-48
2023/04/06 12:36:13;;;;;;;13.18;8.80;;;11.90;96.90;;;;;;4956827;28;20078;-53
2023/04/06 12:38:40;;;;;;;17.58;9.70;;;11.90;97.00;;;;;;4975168;28;20073;-54
2023/04/06 12:41:06;;;;;;;14.55;9.10;;;11.90;97.30;;;;;;4978713;28;20525;-51
2023/04/06 12:43:32;;;;;;;16.85;10.88;;;11.80;97.30;;;;;;4985617;28;20133;-51